Morton S Bouchard Jr — WSE9678 — position and weather

sailwx.info

Track history (hours):
 
Tides and Currents Weather Stations Pressure Air Temp Water Temp Dewpoint Dewpoint Depression Visibility Wind Speed Wind Dir Waves Ship Positions

Morton S Bouchard Jr

Owner: BOUCHARD TRANSPORTATION CO INC, MELVILLE, NY. More information available from US FCC via Universal Licensing System and Coast Guard Vessel Documentation Center.

Last reported at 2016-Aug-28 08:33 UTC. Time now 2016-Aug-28 08:40 UTC.
Position N 40°39' W 074°07'.

Length 33 m; draft 5.4 m.

Type: Tug. MMSI: 367006550.

Date/timePositionNaut miles runAvg speedWind from/ knotsBaromVisibWave heightAir tempDewpointWater temp
2016-Aug-28 08:33N 40°39' W 074°07'0 0.0
2016-Aug-28 07:33N 40°39' W 074°07'0 0.0
2016-Aug-28 06:33N 40°39' W 074°07'0 0.0
2016-Aug-28 05:33N 40°39' W 074°07'0 0.0
2016-Aug-28 04:33N 40°39' W 074°07'0 0.0
2016-Aug-28 03:33N 40°39' W 074°07'0 0.0
2016-Aug-28 02:33N 40°39' W 074°07'0 0.0
2016-Aug-28 01:33N 40°39' W 074°07'0 0.0
2016-Aug-28 00:33N 40°39' W 074°07'0 0.0
2016-Aug-27 23:33N 40°39' W 074°07'0 0.0
2016-Aug-27 22:33N 40°39' W 074°07'0 0.0
2016-Aug-27 21:33N 40°39' W 074°07'0 0.0
2016-Aug-27 20:33N 40°39' W 074°07'0 0.0
2016-Aug-27 19:33N 40°39' W 074°07'0 0.0
2016-Aug-27 18:33N 40°39' W 074°07'0 0.0
2016-Aug-27 17:33N 40°39' W 074°07'0 0.0
2016-Aug-27 16:33N 40°39' W 074°07'0 0.0
2016-Aug-27 15:33N 40°39' W 074°07'0 0.0
2016-Aug-27 14:32N 40°39' W 074°07'0 0.0
2016-Aug-27 13:33N 40°39' W 074°07'0 0.0
2016-Aug-27 12:33N 40°39' W 074°07'0 0.0
2016-Aug-27 11:31N 40°39' W 074°07'0 0.0
2016-Aug-27 10:31N 40°39' W 074°07'0 0.0
2016-Aug-27 09:33N 40°39' W 074°07'0 0.0
2016-Aug-27 08:33N 40°39' W 074°07'0 0.0
2016-Aug-27 07:33N 40°39' W 074°07'0 0.0
2016-Aug-27 06:33N 40°39' W 074°07'0 0.0
2016-Aug-27 04:33N 40°39' W 074°07'0 0.0
2016-Aug-27 03:33N 40°39' W 074°07'0 0.0
2016-Aug-27 02:33N 40°39' W 074°07'0 0.0
2016-Aug-27 01:33N 40°39' W 074°07'0 0.0
2016-Aug-27 00:33N 40°39' W 074°07'0 0.0
2016-Aug-26 23:33N 40°39' W 074°07'0 0.0
2016-Aug-26 22:33N 40°39' W 074°07'0 0.0
2016-Aug-26 21:33N 40°39' W 074°07'0 0.0
2016-Aug-26 20:33N 40°39' W 074°07'0 0.0
2016-Aug-26 19:33N 40°39' W 074°07'0 0.0
2016-Aug-26 18:33N 40°39' W 074°07'0 0.0
2016-Aug-26 17:33N 40°39' W 074°07'0 0.0
2016-Aug-26 16:33N 40°39' W 074°07'0 0.0
2016-Aug-26 15:33N 40°39' W 074°07'0 0.0
2016-Aug-26 14:33N 40°39' W 074°07'0 0.0
2016-Aug-26 13:33N 40°39' W 074°07'0 0.0
2016-Aug-26 12:33N 40°39' W 074°07'0 0.0
2016-Aug-26 11:33N 40°39' W 074°07'0 0.0
2016-Aug-26 10:33N 40°39' W 074°07'0 0.0
2016-Aug-26 09:33N 40°39' W 074°07'0 0.0
2016-Aug-26 08:33N 40°39' W 074°07'0 0.0
2016-Aug-26 07:33N 40°39' W 074°07'0 0.0
2016-Aug-26 06:33N 40°39' W 074°07'0 0.0
2016-Aug-26 04:33N 40°39' W 074°07'0 0.0
2016-Aug-26 03:33N 40°39' W 074°07'0 0.0
2016-Aug-26 02:33N 40°39' W 074°07'0 0.0
2016-Aug-26 01:33N 40°39' W 074°07'0 0.0
2016-Aug-26 00:33N 40°39' W 074°07'0 0.0
2016-Aug-25 23:33N 40°39' W 074°07'0 0.0
2016-Aug-25 22:33N 40°39' W 074°07'0 0.0
2016-Aug-25 21:33N 40°39' W 074°07'0 0.0
2016-Aug-25 20:33N 40°39' W 074°07'0 0.0
2016-Aug-25 19:33N 40°39' W 074°07'0 0.0
2016-Aug-25 18:33N 40°39' W 074°07'0 0.0
2016-Aug-25 17:33N 40°39' W 074°07'0 0.0
2016-Aug-25 16:33N 40°39' W 074°07'0 0.0
2016-Aug-25 15:33N 40°39' W 074°07'0 0.0
2016-Aug-25 14:33N 40°39' W 074°07'0 0.0
2016-Aug-25 13:33N 40°39' W 074°07'2 1.9
2016-Aug-25 12:34N 40°39' W 074°05'1 0.8
2016-Aug-25 11:33N 40°39' W 074°06'0 0.0
2016-Aug-25 10:33N 40°39' W 074°06'0 0.0
2016-Aug-25 09:33N 40°39' W 074°06'0 0.0
2016-Aug-25 08:33N 40°39' W 074°06'0 0.0
2016-Aug-25 07:33N 40°39' W 074°06'1 0.7
2016-Aug-25 06:33N 40°39' W 074°05'1 0.4
2016-Aug-25 04:33N 40°39' W 074°06'0 0.0
2016-Aug-25 03:33N 40°39' W 074°06'0 0.0
2016-Aug-25 02:33N 40°39' W 074°06'8 8.0
2016-Aug-25 01:33N 40°44' W 073°58'2 1.8
2016-Aug-25 00:33N 40°42' W 073°59'2 1.6
2016-Aug-24 23:33N 40°42' W 074°00'3 2.8
2016-Aug-24 22:33N 40°40' W 074°03'8 7.6
2016-Aug-24 21:33N 40°36' W 074°12'3 1.1
2016-Aug-24 18:34N 40°39' W 074°10'3 2.8
2016-Aug-24 17:33N 40°39' W 074°06'0 0.0
2016-Aug-24 16:33N 40°39' W 074°06'0 0.0
2016-Aug-24 15:33N 40°39' W 074°06'0 0.0
2016-Aug-24 14:33N 40°39' W 074°06'0 0.0
2016-Aug-24 13:33N 40°39' W 074°06'0 0.0
2016-Aug-24 12:33N 40°39' W 074°06'1 0.6
2016-Aug-24 11:33N 40°39' W 074°07'1 1.2
2016-Aug-24 10:34N 40°39' W 074°05'0 0.0
2016-Aug-24 09:33N 40°39' W 074°05'6 6.4
2016-Aug-24 08:33N 40°36' W 074°12'0 0.0
2016-Aug-24 02:20N 40°36' W 074°12'6 7.2
2016-Aug-24 01:34N 40°39' W 074°06'5 5.0
2016-Aug-24 00:34N 40°42' W 074°00'3 2.7
2016-Aug-23 23:33N 40°39' W 074°03'4 3.7
2016-Aug-23 22:33N 40°36' W 074°02'0 0.0
2016-Aug-23 21:33N 40°36' W 074°02'4 4.4
2016-Aug-23 20:33N 40°40' W 074°02'0 0.1
2016-Aug-23 19:33N 40°40' W 074°02'0 0.0
2016-Aug-23 18:33N 40°40' W 074°02'0 0.0
2016-Aug-23 17:33N 40°40' W 074°02'0 0.0
2016-Aug-23 16:33N 40°40' W 074°02'0 0.0
2016-Aug-23 15:33N 40°40' W 074°02'0 0.1
2016-Aug-23 14:33N 40°40' W 074°02'0 0.0
2016-Aug-23 13:33N 40°40' W 074°02'0 0.0
2016-Aug-23 12:33N 40°40' W 074°02'0 0.0
2016-Aug-23 11:33N 40°40' W 074°02'0 0.0
2016-Aug-23 10:33N 40°40' W 074°02'0 0.0
2016-Aug-23 09:33N 40°40' W 074°02'0 0.0
2016-Aug-23 08:33N 40°40' W 074°02'0 0.0
2016-Aug-23 07:33N 40°40' W 074°02'0 0.0
2016-Aug-23 06:33N 40°40' W 074°02'0 0.0
2016-Aug-23 05:33N 40°40' W 074°02'0 0.0
2016-Aug-23 04:33N 40°40' W 074°02'0 0.0
2016-Aug-23 03:33N 40°40' W 074°02'0 0.0
2016-Aug-23 02:33N 40°40' W 074°02'0 0.0
2016-Aug-23 01:33N 40°40' W 074°02'0 0.0
2016-Aug-23 00:33N 40°40' W 074°02'0 0.0
2016-Aug-22 23:33N 40°40' W 074°02'0 0.0
2016-Aug-22 22:33N 40°40' W 074°02'0 0.0
2016-Aug-22 21:33N 40°40' W 074°02'0 0.0
2016-Aug-22 20:33N 40°40' W 074°02'0 0.0
2016-Aug-22 19:33N 40°40' W 074°02'0 0.0
2016-Aug-22 18:33N 40°40' W 074°02'0 0.0
2016-Aug-22 17:33N 40°40' W 074°02'0 0.1
2016-Aug-22 16:33N 40°40' W 074°02'0 0.0
2016-Aug-22 15:33N 40°40' W 074°02'0 0.0
2016-Aug-22 14:33N 40°40' W 074°02'0 0.0
2016-Aug-22 13:33N 40°40' W 074°02'0 0.0
2016-Aug-22 12:33N 40°40' W 074°02'0 0.0
2016-Aug-22 11:33N 40°40' W 074°02'0 0.0
2016-Aug-22 10:33N 40°40' W 074°02'0 0.0
2016-Aug-22 09:33N 40°40' W 074°02'0 0.0
2016-Aug-22 08:33N 40°40' W 074°02'0 0.0
2016-Aug-22 07:33N 40°40' W 074°02'0 0.0
2016-Aug-22 06:33N 40°40' W 074°02'0 0.0
2016-Aug-22 05:33N 40°40' W 074°02'0 0.0
2016-Aug-22 04:33N 40°40' W 074°02'0 0.0
2016-Aug-22 03:33N 40°40' W 074°02'0 0.0
2016-Aug-22 02:33N 40°40' W 074°02'0 0.0
2016-Aug-22 01:33N 40°40' W 074°02'0 0.0
2016-Aug-22 00:33N 40°40' W 074°02'0 0.0
2016-Aug-21 23:33N 40°40' W 074°02'0 0.0
2016-Aug-21 22:33N 40°40' W 074°02'0 0.1
2016-Aug-21 21:33N 40°40' W 074°02'0 0.0
2016-Aug-21 20:33N 40°40' W 074°02'0 0.0
2016-Aug-21 19:33N 40°40' W 074°02'0 0.0
2016-Aug-21 18:33N 40°40' W 074°02'0 0.0
2016-Aug-21 17:33N 40°40' W 074°02'0 0.0
2016-Aug-21 16:33N 40°40' W 074°02'0 0.0
2016-Aug-21 15:34N 40°40' W 074°02'0 0.0
2016-Aug-21 14:34N 40°40' W 074°02'0 0.0
2016-Aug-21 13:34N 40°40' W 074°02'0 0.0
2016-Aug-21 12:34N 40°40' W 074°02'0 0.5
2016-Aug-21 11:33N 40°40' W 074°03'8 0.9
2016-Aug-21 02:04N 40°35' W 074°12'1 1.0
2016-Aug-21 01:18N 40°36' W 074°12'0 0.5
2016-Aug-21 00:33N 40°36' W 074°12'4 3.9
2016-Aug-20 23:33N 40°39' W 074°08'5 4.6
2016-Aug-20 22:33N 40°40' W 074°02'0 0.1
2016-Aug-20 21:34N 40°40' W 074°02'0 0.0
2016-Aug-20 20:34N 40°40' W 074°02'2 2.2
2016-Aug-20 19:33N 40°41' W 074°00'0 0.1
2016-Aug-20 18:34N 40°41' W 074°00'0 0.0
2016-Aug-20 17:33N 40°41' W 074°00'0 0.0
2016-Aug-20 16:34N 40°41' W 074°00'5 5.1
2016-Aug-20 15:33N 40°46' W 073°57'5 5.0
2016-Aug-20 14:34N 40°42' W 074°00'0 0.3
2016-Aug-20 13:34N 40°41' W 074°00'0 0.0
2016-Aug-20 12:33N 40°41' W 074°00'0 0.0
2016-Aug-20 11:34N 40°41' W 074°00'0 0.0
2016-Aug-20 10:33N 40°41' W 074°00'2 1.9
2016-Aug-20 09:34N 40°40' W 074°02'4 3.8
2016-Aug-20 08:34N 40°39' W 074°07'0 0.3
2016-Aug-20 07:33N 40°39' W 074°06'0 0.4
2016-Aug-20 06:33N 40°39' W 074°06'0 0.0
2016-Aug-20 05:33N 40°39' W 074°06'0 0.0
2016-Aug-20 04:33N 40°39' W 074°06'0 0.0
2016-Aug-20 03:33N 40°39' W 074°06'0 0.0
2016-Aug-20 02:34N 40°39' W 074°06'0 0.0
2016-Aug-20 01:34N 40°39' W 074°06'0 0.0
2016-Aug-20 00:34N 40°39' W 074°06'0 0.0
2016-Aug-19 23:33N 40°39' W 074°06'0 0.0
2016-Aug-19 22:33N 40°39' W 074°06'0 0.0
2016-Aug-19 21:33N 40°39' W 074°06'0 0.0
2016-Aug-19 20:34N 40°39' W 074°06'2 2.4
2016-Aug-19 19:34N 40°39' W 074°03'0 0.0
2016-Aug-19 18:33N 40°39' W 074°03'0 0.0
2016-Aug-19 17:33N 40°39' W 074°03'0 0.0
2016-Aug-19 16:33N 40°39' W 074°03'0 0.1
2016-Aug-19 15:34N 40°39' W 074°03'0 0.1
2016-Aug-19 14:34N 40°40' W 074°03'0 0.0
2016-Aug-19 13:34N 40°40' W 074°03'0 0.0
2016-Aug-19 12:34N 40°40' W 074°03'2 2.5
2016-Aug-19 11:34N 40°39' W 074°06'0 0.0
2016-Aug-19 10:33N 40°39' W 074°06'0 0.0
2016-Aug-19 09:34N 40°39' W 074°06'0 0.1
2016-Aug-19 08:33N 40°39' W 074°06'1 0.6
2016-Aug-19 07:34N 40°39' W 074°07'3 3.0
2016-Aug-19 06:34N 40°39' W 074°03'0 0.1
2016-Aug-19 05:34N 40°39' W 074°03'0 0.0
2016-Aug-19 04:34N 40°39' W 074°03'0 0.2
2016-Aug-19 03:34N 40°40' W 074°03'0 0.0
2016-Aug-19 02:34N 40°40' W 074°03'0 0.0
2016-Aug-19 01:34N 40°40' W 074°03'0 0.0
2016-Aug-19 00:33N 40°40' W 074°03'0 0.0
2016-Aug-18 23:33N 40°40' W 074°03'0 0.0
2016-Aug-18 22:34N 40°40' W 074°03'0 0.2
2016-Aug-18 21:34N 40°39' W 074°03'0 0.0
2016-Aug-18 20:33N 40°39' W 074°03'4 3.7
2016-Aug-18 19:34N 40°39' W 074°07'5 4.9
2016-Aug-18 18:30N 40°35' W 074°13'2 0.3
2016-Aug-18 11:27N 40°34' W 074°14'  
Track history (hours):
 
Tides and Currents Weather Stations Pressure Air Temp Water Temp Dewpoint Dewpoint Depression Visibility Wind Speed Wind Dir Waves Ship Positions

Morton S Bouchard Jr

Owner: BOUCHARD TRANSPORTATION CO INC, MELVILLE, NY. More information available from US FCC via Universal Licensing System and Coast Guard Vessel Documentation Center.

Last reported at 2016-Aug-28 08:33 UTC. Time now 2016-Aug-28 08:40 UTC.
Position N 40°39' W 074°07'.

Length 33 m; draft 5.4 m.

Type: Tug. MMSI: 367006550.

Date/timePositionNaut miles runAvg speedWind from/ knotsBaromVisibWave heightAir tempDewpointWater temp
2016-Aug-28 08:33N 40°39' W 074°07'0 0.0
2016-Aug-28 07:33N 40°39' W 074°07'0 0.0
2016-Aug-28 06:33N 40°39' W 074°07'0 0.0
2016-Aug-28 05:33N 40°39' W 074°07'0 0.0
2016-Aug-28 04:33N 40°39' W 074°07'0 0.0
2016-Aug-28 03:33N 40°39' W 074°07'0 0.0
2016-Aug-28 02:33N 40°39' W 074°07'0 0.0
2016-Aug-28 01:33N 40°39' W 074°07'0 0.0
2016-Aug-28 00:33N 40°39' W 074°07'0 0.0
2016-Aug-27 23:33N 40°39' W 074°07'0 0.0
2016-Aug-27 22:33N 40°39' W 074°07'0 0.0
2016-Aug-27 21:33N 40°39' W 074°07'0 0.0
2016-Aug-27 20:33N 40°39' W 074°07'0 0.0
2016-Aug-27 19:33N 40°39' W 074°07'0 0.0
2016-Aug-27 18:33N 40°39' W 074°07'0 0.0
2016-Aug-27 17:33N 40°39' W 074°07'0 0.0
2016-Aug-27 16:33N 40°39' W 074°07'0 0.0
2016-Aug-27 15:33N 40°39' W 074°07'0 0.0
2016-Aug-27 14:32N 40°39' W 074°07'0 0.0
2016-Aug-27 13:33N 40°39' W 074°07'0 0.0
2016-Aug-27 12:33N 40°39' W 074°07'0 0.0
2016-Aug-27 11:31N 40°39' W 074°07'0 0.0
2016-Aug-27 10:31N 40°39' W 074°07'0 0.0
2016-Aug-27 09:33N 40°39' W 074°07'0 0.0
2016-Aug-27 08:33N 40°39' W 074°07'0 0.0
2016-Aug-27 07:33N 40°39' W 074°07'0 0.0
2016-Aug-27 06:33N 40°39' W 074°07'0 0.0
2016-Aug-27 04:33N 40°39' W 074°07'0 0.0
2016-Aug-27 03:33N 40°39' W 074°07'0 0.0
2016-Aug-27 02:33N 40°39' W 074°07'0 0.0
2016-Aug-27 01:33N 40°39' W 074°07'0 0.0
2016-Aug-27 00:33N 40°39' W 074°07'0 0.0
2016-Aug-26 23:33N 40°39' W 074°07'0 0.0
2016-Aug-26 22:33N 40°39' W 074°07'0 0.0
2016-Aug-26 21:33N 40°39' W 074°07'0 0.0
2016-Aug-26 20:33N 40°39' W 074°07'0 0.0
2016-Aug-26 19:33N 40°39' W 074°07'0 0.0
2016-Aug-26 18:33N 40°39' W 074°07'0 0.0
2016-Aug-26 17:33N 40°39' W 074°07'0 0.0
2016-Aug-26 16:33N 40°39' W 074°07'0 0.0
2016-Aug-26 15:33N 40°39' W 074°07'0 0.0
2016-Aug-26 14:33N 40°39' W 074°07'0 0.0
2016-Aug-26 13:33N 40°39' W 074°07'0 0.0
2016-Aug-26 12:33N 40°39' W 074°07'0 0.0
2016-Aug-26 11:33N 40°39' W 074°07'0 0.0
2016-Aug-26 10:33N 40°39' W 074°07'0 0.0
2016-Aug-26 09:33N 40°39' W 074°07'0 0.0
2016-Aug-26 08:33N 40°39' W 074°07'0 0.0
2016-Aug-26 07:33N 40°39' W 074°07'0 0.0
2016-Aug-26 06:33N 40°39' W 074°07'0 0.0
2016-Aug-26 04:33N 40°39' W 074°07'0 0.0
2016-Aug-26 03:33N 40°39' W 074°07'0 0.0
2016-Aug-26 02:33N 40°39' W 074°07'0 0.0
2016-Aug-26 01:33N 40°39' W 074°07'0 0.0
2016-Aug-26 00:33N 40°39' W 074°07'0 0.0
2016-Aug-25 23:33N 40°39' W 074°07'0 0.0
2016-Aug-25 22:33N 40°39' W 074°07'0 0.0
2016-Aug-25 21:33N 40°39' W 074°07'0 0.0
2016-Aug-25 20:33N 40°39' W 074°07'0 0.0
2016-Aug-25 19:33N 40°39' W 074°07'0 0.0
2016-Aug-25 18:33N 40°39' W 074°07'0 0.0
2016-Aug-25 17:33N 40°39' W 074°07'0 0.0
2016-Aug-25 16:33N 40°39' W 074°07'0 0.0
2016-Aug-25 15:33N 40°39' W 074°07'0 0.0
2016-Aug-25 14:33N 40°39' W 074°07'0 0.0
2016-Aug-25 13:33N 40°39' W 074°07'2 1.9
2016-Aug-25 12:34N 40°39' W 074°05'1 0.8
2016-Aug-25 11:33N 40°39' W 074°06'0 0.0
2016-Aug-25 10:33N 40°39' W 074°06'0 0.0
2016-Aug-25 09:33N 40°39' W 074°06'0 0.0
2016-Aug-25 08:33N 40°39' W 074°06'0 0.0
2016-Aug-25 07:33N 40°39' W 074°06'1 0.7
2016-Aug-25 06:33N 40°39' W 074°05'1 0.4
2016-Aug-25 04:33N 40°39' W 074°06'0 0.0
2016-Aug-25 03:33N 40°39' W 074°06'0 0.0
2016-Aug-25 02:33N 40°39' W 074°06'8 8.0
2016-Aug-25 01:33N 40°44' W 073°58'2 1.8
2016-Aug-25 00:33N 40°42' W 073°59'2 1.6
2016-Aug-24 23:33N 40°42' W 074°00'3 2.8
2016-Aug-24 22:33N 40°40' W 074°03'8 7.6
2016-Aug-24 21:33N 40°36' W 074°12'3 1.1
2016-Aug-24 18:34N 40°39' W 074°10'3 2.8
2016-Aug-24 17:33N 40°39' W 074°06'0 0.0
2016-Aug-24 16:33N 40°39' W 074°06'0 0.0
2016-Aug-24 15:33N 40°39' W 074°06'0 0.0
2016-Aug-24 14:33N 40°39' W 074°06'0 0.0
2016-Aug-24 13:33N 40°39' W 074°06'0 0.0
2016-Aug-24 12:33N 40°39' W 074°06'1 0.6
2016-Aug-24 11:33N 40°39' W 074°07'1 1.2
2016-Aug-24 10:34N 40°39' W 074°05'0 0.0
2016-Aug-24 09:33N 40°39' W 074°05'6 6.4
2016-Aug-24 08:33N 40°36' W 074°12'0 0.0
2016-Aug-24 02:20N 40°36' W 074°12'6 7.2
2016-Aug-24 01:34N 40°39' W 074°06'5 5.0
2016-Aug-24 00:34N 40°42' W 074°00'3 2.7
2016-Aug-23 23:33N 40°39' W 074°03'4 3.7
2016-Aug-23 22:33N 40°36' W 074°02'0 0.0
2016-Aug-23 21:33N 40°36' W 074°02'4 4.4
2016-Aug-23 20:33N 40°40' W 074°02'0 0.1
2016-Aug-23 19:33N 40°40' W 074°02'0 0.0
2016-Aug-23 18:33N 40°40' W 074°02'0 0.0
2016-Aug-23 17:33N 40°40' W 074°02'0 0.0
2016-Aug-23 16:33N 40°40' W 074°02'0 0.0
2016-Aug-23 15:33N 40°40' W 074°02'0 0.1
2016-Aug-23 14:33N 40°40' W 074°02'0 0.0
2016-Aug-23 13:33N 40°40' W 074°02'0 0.0
2016-Aug-23 12:33N 40°40' W 074°02'0 0.0
2016-Aug-23 11:33N 40°40' W 074°02'0 0.0
2016-Aug-23 10:33N 40°40' W 074°02'0 0.0
2016-Aug-23 09:33N 40°40' W 074°02'0 0.0
2016-Aug-23 08:33N 40°40' W 074°02'0 0.0
2016-Aug-23 07:33N 40°40' W 074°02'0 0.0
2016-Aug-23 06:33N 40°40' W 074°02'0 0.0
2016-Aug-23 05:33N 40°40' W 074°02'0 0.0
2016-Aug-23 04:33N 40°40' W 074°02'0 0.0
2016-Aug-23 03:33N 40°40' W 074°02'0 0.0
2016-Aug-23 02:33N 40°40' W 074°02'0 0.0
2016-Aug-23 01:33N 40°40' W 074°02'0 0.0
2016-Aug-23 00:33N 40°40' W 074°02'0 0.0
2016-Aug-22 23:33N 40°40' W 074°02'0 0.0
2016-Aug-22 22:33N 40°40' W 074°02'0 0.0
2016-Aug-22 21:33N 40°40' W 074°02'0 0.0
2016-Aug-22 20:33N 40°40' W 074°02'0 0.0
2016-Aug-22 19:33N 40°40' W 074°02'0 0.0
2016-Aug-22 18:33N 40°40' W 074°02'0 0.0
2016-Aug-22 17:33N 40°40' W 074°02'0 0.1
2016-Aug-22 16:33N 40°40' W 074°02'0 0.0
2016-Aug-22 15:33N 40°40' W 074°02'0 0.0
2016-Aug-22 14:33N 40°40' W 074°02'0 0.0
2016-Aug-22 13:33N 40°40' W 074°02'0 0.0
2016-Aug-22 12:33N 40°40' W 074°02'0 0.0
2016-Aug-22 11:33N 40°40' W 074°02'0 0.0
2016-Aug-22 10:33N 40°40' W 074°02'0 0.0
2016-Aug-22 09:33N 40°40' W 074°02'0 0.0
2016-Aug-22 08:33N 40°40' W 074°02'0 0.0
2016-Aug-22 07:33N 40°40' W 074°02'0 0.0
2016-Aug-22 06:33N 40°40' W 074°02'0 0.0
2016-Aug-22 05:33N 40°40' W 074°02'0 0.0
2016-Aug-22 04:33N 40°40' W 074°02'0 0.0
2016-Aug-22 03:33N 40°40' W 074°02'0 0.0
2016-Aug-22 02:33N 40°40' W 074°02'0 0.0
2016-Aug-22 01:33N 40°40' W 074°02'0 0.0
2016-Aug-22 00:33N 40°40' W 074°02'0 0.0
2016-Aug-21 23:33N 40°40' W 074°02'0 0.0
2016-Aug-21 22:33N 40°40' W 074°02'0 0.1
2016-Aug-21 21:33N 40°40' W 074°02'0 0.0
2016-Aug-21 20:33N 40°40' W 074°02'0 0.0
2016-Aug-21 19:33N 40°40' W 074°02'0 0.0
2016-Aug-21 18:33N 40°40' W 074°02'0 0.0
2016-Aug-21 17:33N 40°40' W 074°02'0 0.0
2016-Aug-21 16:33N 40°40' W 074°02'0 0.0
2016-Aug-21 15:34N 40°40' W 074°02'0 0.0
2016-Aug-21 14:34N 40°40' W 074°02'0 0.0
2016-Aug-21 13:34N 40°40' W 074°02'0 0.0
2016-Aug-21 12:34N 40°40' W 074°02'0 0.5
2016-Aug-21 11:33N 40°40' W 074°03'8 0.9
2016-Aug-21 02:04N 40°35' W 074°12'1 1.0
2016-Aug-21 01:18N 40°36' W 074°12'0 0.5
2016-Aug-21 00:33N 40°36' W 074°12'4 3.9
2016-Aug-20 23:33N 40°39' W 074°08'5 4.6
2016-Aug-20 22:33N 40°40' W 074°02'0 0.1
2016-Aug-20 21:34N 40°40' W 074°02'0 0.0
2016-Aug-20 20:34N 40°40' W 074°02'2 2.2
2016-Aug-20 19:33N 40°41' W 074°00'0 0.1
2016-Aug-20 18:34N 40°41' W 074°00'0 0.0
2016-Aug-20 17:33N 40°41' W 074°00'0 0.0
2016-Aug-20 16:34N 40°41' W 074°00'5 5.1
2016-Aug-20 15:33N 40°46' W 073°57'5 5.0
2016-Aug-20 14:34N 40°42' W 074°00'0 0.3
2016-Aug-20 13:34N 40°41' W 074°00'0 0.0
2016-Aug-20 12:33N 40°41' W 074°00'0 0.0
2016-Aug-20 11:34N 40°41' W 074°00'0 0.0
2016-Aug-20 10:33N 40°41' W 074°00'2 1.9
2016-Aug-20 09:34N 40°40' W 074°02'4 3.8
2016-Aug-20 08:34N 40°39' W 074°07'0 0.3
2016-Aug-20 07:33N 40°39' W 074°06'0 0.4
2016-Aug-20 06:33N 40°39' W 074°06'0 0.0
2016-Aug-20 05:33N 40°39' W 074°06'0 0.0
2016-Aug-20 04:33N 40°39' W 074°06'0 0.0
2016-Aug-20 03:33N 40°39' W 074°06'0 0.0
2016-Aug-20 02:34N 40°39' W 074°06'0 0.0
2016-Aug-20 01:34N 40°39' W 074°06'0 0.0
2016-Aug-20 00:34N 40°39' W 074°06'0 0.0
2016-Aug-19 23:33N 40°39' W 074°06'0 0.0
2016-Aug-19 22:33N 40°39' W 074°06'0 0.0
2016-Aug-19 21:33N 40°39' W 074°06'0 0.0
2016-Aug-19 20:34N 40°39' W 074°06'2 2.4
2016-Aug-19 19:34N 40°39' W 074°03'0 0.0
2016-Aug-19 18:33N 40°39' W 074°03'0 0.0
2016-Aug-19 17:33N 40°39' W 074°03'0 0.0
2016-Aug-19 16:33N 40°39' W 074°03'0 0.1
2016-Aug-19 15:34N 40°39' W 074°03'0 0.1
2016-Aug-19 14:34N 40°40' W 074°03'0 0.0
2016-Aug-19 13:34N 40°40' W 074°03'0 0.0
2016-Aug-19 12:34N 40°40' W 074°03'2 2.5
2016-Aug-19 11:34N 40°39' W 074°06'0 0.0
2016-Aug-19 10:33N 40°39' W 074°06'0 0.0
2016-Aug-19 09:34N 40°39' W 074°06'0 0.1
2016-Aug-19 08:33N 40°39' W 074°06'1 0.6
2016-Aug-19 07:34N 40°39' W 074°07'3 3.0
2016-Aug-19 06:34N 40°39' W 074°03'0 0.1
2016-Aug-19 05:34N 40°39' W 074°03'0 0.0
2016-Aug-19 04:34N 40°39' W 074°03'0 0.2
2016-Aug-19 03:34N 40°40' W 074°03'0 0.0
2016-Aug-19 02:34N 40°40' W 074°03'0 0.0
2016-Aug-19 01:34N 40°40' W 074°03'0 0.0
2016-Aug-19 00:33N 40°40' W 074°03'0 0.0
2016-Aug-18 23:33N 40°40' W 074°03'0 0.0
2016-Aug-18 22:34N 40°40' W 074°03'0 0.2
2016-Aug-18 21:34N 40°39' W 074°03'0 0.0
2016-Aug-18 20:33N 40°39' W 074°03'4 3.7
2016-Aug-18 19:34N 40°39' W 074°07'5 4.9
2016-Aug-18 18:30N 40°35' W 074°13'2 0.3
2016-Aug-18 11:27N 40°34' W 074°14'  

Dump ship's entire track history